createdAt,value
2019-04-21T00:01:12.536Z,50.30
2019-04-21T00:03:48.653Z,50.40
2019-04-21T00:06:32.167Z,50.30
2019-04-21T00:11:35.604Z,50.50
2019-04-21T00:14:01.853Z,50.30
2019-04-21T00:16:29.103Z,50.00
2019-04-21T00:19:09.366Z,49.80
2019-04-21T00:21:38.487Z,50.10
2019-04-21T00:24:24.169Z,50.10
2019-04-21T00:26:57.471Z,50.10
2019-04-21T00:29:34.193Z,50.00
2019-04-21T00:31:57.955Z,50.20
2019-04-21T00:34:15.444Z,50.00
2019-04-21T00:36:55.931Z,50.30
2019-04-21T00:39:43.675Z,50.30
2019-04-21T00:42:08.885Z,50.30
2019-04-21T00:44:32.042Z,50.70
2019-04-21T00:47:06.461Z,50.60
2019-04-21T00:49:35.997Z,50.50
2019-04-21T00:55:24.991Z,50.60
2019-04-21T00:57:51.714Z,50.60
2019-04-21T01:00:18.783Z,50.70
2019-04-21T01:02:51.108Z,50.80
2019-04-21T01:05:37.464Z,50.80
2019-04-21T01:07:41.640Z,50.90
2019-04-21T01:10:09.436Z,51.20
2019-04-21T01:12:48.883Z,51.20
2019-04-21T01:15:26.142Z,51.20
2019-04-21T01:17:52.158Z,51.40
2019-04-21T01:20:16.208Z,51.30
2019-04-21T01:22:35.122Z,51.40
2019-04-21T01:25:13.519Z,51.40
2019-04-21T01:28:05.019Z,51.60
2019-04-21T01:30:31.245Z,51.90
2019-04-21T01:33:06.345Z,51.80
2019-04-21T01:35:35.448Z,52.10
2019-04-21T01:38:10.959Z,52.10
2019-04-21T01:40:34.848Z,52.30
2019-04-21T01:43:07.738Z,52.50
2019-04-21T01:45:43.468Z,52.50
2019-04-21T01:48:12.942Z,52.40
2019-04-21T01:50:45.152Z,52.70
2019-04-21T01:53:24.847Z,52.70
2019-04-21T01:56:00.604Z,52.60
2019-04-21T01:58:25.494Z,53.10
2019-04-21T02:01:04.704Z,53.30
2019-04-21T02:03:52.808Z,53.30
2019-04-21T02:06:18.250Z,53.70
2019-04-21T02:08:44.792Z,53.60
2019-04-21T02:11:17.313Z,54.00
2019-04-21T02:13:53.750Z,54.00
2019-04-21T02:16:20.965Z,54.00
2019-04-21T02:18:49.398Z,54.40
2019-04-21T02:21:20.301Z,54.10
2019-04-21T02:24:01.884Z,54.60
2019-04-21T02:26:32.061Z,54.70
2019-04-21T02:29:01.909Z,54.70
2019-04-21T02:31:55.406Z,55.00
2019-04-21T02:34:06.419Z,54.90
2019-04-21T02:37:13.230Z,55.20
2019-04-21T02:39:15.814Z,55.20
2019-04-21T02:49:22.964Z,55.60
2019-04-21T02:51:54.248Z,55.60
2019-04-21T02:59:25.059Z,56.30
2019-04-21T03:02:16.233Z,56.50
2019-04-21T03:04:53.120Z,56.50
2019-04-21T03:10:18.287Z,57.00
2019-04-21T03:12:22.546Z,57.10
2019-04-21T03:20:03.141Z,57.30
2019-04-21T03:30:20.722Z,57.60
2019-04-21T03:33:16.637Z,57.80
2019-04-21T03:37:36.892Z,57.80
2019-04-21T03:45:27.112Z,58.40
2019-04-21T03:47:48.321Z,58.80
2019-04-21T03:50:20.396Z,58.90
2019-04-21T03:52:53.429Z,59.00
2019-04-21T04:00:50.715Z,59.70
2019-04-21T04:03:53.828Z,59.90
2019-04-21T04:09:21.379Z,60.70
2019-04-21T04:11:56.686Z,60.10
2019-04-21T04:16:58.039Z,60.40
2019-04-21T04:19:22.897Z,60.60
2019-04-21T04:22:00.764Z,60.90
2019-04-21T04:29:24.165Z,61.20
2019-04-21T04:40:10.561Z,61.60
2019-04-21T04:42:39.336Z,61.70
2019-04-21T04:45:17.743Z,61.90
2019-04-21T04:47:46.985Z,62.10
2019-04-21T04:50:17.239Z,61.90
2019-04-21T04:52:44.410Z,62.00
2019-04-21T05:02:48.902Z,62.60
2019-04-21T05:08:08.495Z,62.40
2019-04-21T05:10:28.737Z,62.40
2019-04-21T05:12:51.215Z,62.80
2019-04-21T05:15:16.200Z,62.20
2019-04-21T05:20:23.780Z,62.30
2019-04-21T05:22:55.851Z,61.90
2019-04-21T05:25:19.561Z,62.20
2019-04-21T05:27:47.243Z,61.90
2019-04-21T05:30:56.420Z,61.50
2019-04-21T05:33:39.983Z,61.20
2019-04-21T05:36:23.984Z,61.40
2019-04-21T05:39:03.878Z,61.00
2019-04-21T05:41:28.582Z,60.90
2019-04-21T05:44:09.858Z,60.30
2019-04-21T05:46:47.851Z,60.30
2019-04-21T05:49:20.516Z,60.30
2019-04-21T05:51:58.309Z,60.40
2019-04-21T05:57:11.917Z,59.60
2019-04-21T05:59:40.044Z,59.60
2019-04-21T06:02:20.930Z,59.60
2019-04-21T06:05:03.208Z,59.20
2019-04-21T06:07:21.536Z,58.70
2019-04-21T06:09:54.125Z,58.60
2019-04-21T06:12:14.592Z,58.00
2019-04-21T06:14:48.459Z,58.00
2019-04-21T06:17:19.339Z,57.90
2019-04-21T06:19:52.793Z,57.10
2019-04-21T06:22:13.783Z,57.10
2019-04-21T06:25:18.667Z,56.50
2019-04-21T06:27:27.599Z,56.20
2019-04-21T06:29:55.687Z,55.90
2019-04-21T06:42:33.711Z,55.20
2019-04-21T06:45:08.773Z,54.90
2019-04-21T06:47:50.085Z,54.80
2019-04-21T06:50:07.581Z,54.70
2019-04-21T06:55:09.923Z,55.30
2019-04-21T06:57:38.991Z,54.20
2019-04-21T07:00:06.265Z,54.20
2019-04-21T07:05:13.266Z,53.90
2019-04-21T07:07:52.104Z,53.60
2019-04-21T07:10:16.930Z,53.70
2019-04-21T07:12:39.418Z,53.30
2019-04-21T07:15:18.005Z,53.10
2019-04-21T07:17:47.864Z,52.80
2019-04-21T07:20:17.885Z,52.80
2019-04-21T07:22:50.937Z,52.70
2019-04-21T07:25:22.351Z,52.30
2019-04-21T07:27:52.302Z,52.10
2019-04-21T07:30:26.626Z,51.80
2019-04-21T07:32:55.317Z,52.40
2019-04-21T07:35:22.105Z,51.90
2019-04-21T07:37:55.922Z,51.30
2019-04-21T07:40:19.041Z,51.30
2019-04-21T07:42:51.356Z,51.20
2019-04-21T07:45:21.228Z,51.20
2019-04-21T07:48:16.222Z,50.80
2019-04-21T07:50:57.820Z,50.80
2019-04-21T07:53:34.490Z,50.50
2019-04-21T07:55:46.870Z,50.10
2019-04-21T07:58:36.383Z,50.00
2019-04-21T08:01:04.334Z,49.90
2019-04-21T08:03:39.854Z,50.00
2019-04-21T08:06:12.817Z,49.80
2019-04-21T08:08:43.314Z,48.90
2019-04-21T08:11:15.082Z,49.20
2019-04-21T08:13:48.563Z,48.50
2019-04-21T08:16:17.197Z,48.50
2019-04-21T08:18:47.447Z,48.30
2019-04-21T08:21:20.729Z,48.00
2019-04-21T08:23:48.142Z,47.60
2019-04-21T08:26:24.354Z,47.20
2019-04-21T08:28:58.968Z,47.00
2019-04-21T08:31:48.581Z,46.60
2019-04-21T08:34:00.640Z,46.60
2019-04-21T08:38:58.286Z,46.00
2019-04-21T08:41:31.622Z,45.50
2019-04-21T08:44:01.688Z,45.50
2019-04-21T08:46:38.716Z,45.00
2019-04-21T08:49:09.395Z,44.50
2019-04-21T08:51:57.768Z,44.50
2019-04-21T08:54:16.548Z,44.00
2019-04-21T08:57:05.935Z,44.60
2019-04-21T08:59:56.048Z,44.00
2019-04-21T09:02:30.627Z,44.60
2019-04-21T09:05:01.466Z,44.10
2019-04-21T09:10:03.098Z,43.60
2019-04-21T09:12:38.787Z,43.50
2019-04-21T09:15:08.390Z,43.30
2019-04-21T09:17:30.463Z,43.30
2019-04-21T09:20:13.901Z,43.70
2019-04-21T09:22:45.794Z,43.20
2019-04-21T09:25:09.150Z,40.80
2019-04-21T09:27:42.070Z,41.40
2019-04-21T09:30:00.319Z,41.00
2019-04-21T09:32:44.668Z,43.50
2019-04-21T09:35:15.475Z,40.90
2019-04-21T09:37:53.370Z,40.10
2019-04-21T09:40:20.473Z,40.00
2019-04-21T09:42:57.511Z,40.20
2019-04-21T09:45:26.430Z,40.60
2019-04-21T09:48:02.955Z,39.30
2019-04-21T09:50:27.889Z,39.80
2019-04-21T09:53:03.963Z,38.20
2019-04-21T09:55:36.566Z,38.20
2019-04-21T09:58:10.088Z,37.90
2019-04-21T10:00:37.942Z,37.20
2019-04-21T10:03:06.744Z,36.60
2019-04-21T10:05:31.684Z,37.40
2019-04-21T10:08:01.392Z,37.40
2019-04-21T10:10:31.833Z,37.10
2019-04-21T10:13:01.129Z,37.50
2019-04-21T10:15:30.308Z,37.50
2019-04-21T10:18:02.707Z,37.00
2019-04-21T10:20:32.925Z,37.10
2019-04-21T10:23:02.933Z,36.40
2019-04-21T10:25:32.528Z,36.90
2019-04-21T10:28:03.149Z,36.20
2019-04-21T10:30:33.113Z,36.00
2019-04-21T10:33:02.300Z,35.80
2019-04-21T10:35:32.868Z,36.10
2019-04-21T10:38:15.936Z,36.10
2019-04-21T10:40:35.534Z,36.00
2019-04-21T10:43:05.916Z,35.70
2019-04-21T10:45:36.884Z,34.10
2019-04-21T10:48:07.321Z,34.40
2019-04-21T10:50:37.115Z,33.20
2019-04-21T10:53:14.508Z,35.70
2019-04-21T10:55:57.989Z,34.90
2019-04-21T10:58:24.901Z,34.70
2019-04-21T11:01:01.999Z,33.70
2019-04-21T11:03:40.466Z,33.20
2019-04-21T11:06:12.689Z,34.00
2019-04-21T11:08:45.732Z,33.30
2019-04-21T11:11:14.150Z,34.00
2019-04-21T11:13:44.309Z,34.10
2019-04-21T11:16:14.972Z,34.70
2019-04-21T11:18:44.338Z,35.00
2019-04-21T11:21:13.642Z,34.70
2019-04-21T11:23:43.878Z,34.30
2019-04-21T11:26:13.927Z,35.00
2019-04-21T11:28:43.023Z,34.00
2019-04-21T11:31:13.240Z,33.20
2019-04-21T11:33:43.055Z,34.50
2019-04-21T11:36:13.340Z,34.50
2019-04-21T11:39:11.010Z,33.70
2019-04-21T11:41:31.941Z,34.50
2019-04-21T11:44:01.494Z,34.70
2019-04-21T11:46:31.191Z,35.20
2019-04-21T11:49:00.440Z,34.50
2019-04-21T11:51:29.553Z,33.90
2019-04-21T11:54:01.539Z,34.70
2019-04-21T11:56:31.054Z,32.50
2019-04-21T11:59:01.596Z,33.40
2019-04-21T12:01:31.890Z,32.20
2019-04-21T12:04:01.219Z,32.80
2019-04-21T12:06:35.083Z,33.30
2019-04-21T12:09:04.500Z,31.10
2019-04-21T12:11:33.602Z,33.20
2019-04-21T12:14:03.771Z,33.60
2019-04-21T12:16:35.380Z,32.90
2019-04-21T12:19:05.110Z,32.30
2019-04-21T12:21:47.897Z,30.70
2019-04-21T12:24:06.920Z,29.20
2019-04-21T12:26:36.092Z,30.90
2019-04-21T12:29:08.124Z,32.40
2019-04-21T12:32:03.492Z,31.20
2019-04-21T12:34:34.186Z,30.50
2019-04-21T12:37:04.609Z,31.00
2019-04-21T12:39:34.760Z,31.90
2019-04-21T12:42:04.747Z,30.80
2019-04-21T12:44:33.622Z,30.90
2019-04-21T12:47:03.702Z,31.20
2019-04-21T12:49:33.847Z,30.90
2019-04-21T12:52:03.801Z,30.30
2019-04-21T12:54:33.374Z,29.00
2019-04-21T12:57:03.451Z,28.40
2019-04-21T12:59:34.121Z,28.30
2019-04-21T13:02:03.687Z,27.00
2019-04-21T13:04:33.574Z,27.30
2019-04-21T13:07:03.556Z,26.40
2019-04-21T13:09:34.305Z,25.50
2019-04-21T13:12:04.883Z,26.30
2019-04-21T13:14:34.093Z,24.60
2019-04-21T13:17:03.520Z,24.90
2019-04-21T13:19:33.505Z,24.90
2019-04-21T13:22:03.863Z,23.70
2019-04-21T13:24:33.707Z,24.20
2019-04-21T13:27:05.030Z,24.70
2019-04-21T13:29:34.422Z,22.60
2019-04-21T13:32:05.158Z,23.60
2019-04-21T13:34:35.918Z,22.90
2019-04-21T13:37:05.795Z,23.50
2019-04-21T13:40:19.501Z,22.30
2019-04-21T13:42:36.685Z,22.70
2019-04-21T13:45:00.960Z,22.00
2019-04-21T13:47:30.504Z,22.80
2019-04-21T13:50:02.651Z,21.10
2019-04-21T13:52:31.023Z,22.70
2019-04-21T13:55:01.246Z,23.60
2019-04-21T13:57:30.608Z,24.00
2019-04-21T14:00:01.254Z,23.40
2019-04-21T14:02:31.021Z,21.90
2019-04-21T14:05:01.178Z,23.80
2019-04-21T14:07:30.498Z,23.70
2019-04-21T14:10:04.760Z,22.00
2019-04-21T14:12:33.449Z,22.60
2019-04-21T14:15:04.051Z,22.60
2019-04-21T14:17:33.466Z,23.70
2019-04-21T14:20:03.497Z,24.40
2019-04-21T14:22:33.872Z,24.40
2019-04-21T14:25:03.738Z,23.90
2019-04-21T14:27:34.309Z,23.30
2019-04-21T14:30:04.923Z,22.80
2019-04-21T14:32:36.003Z,22.20
2019-04-21T14:35:06.975Z,22.40
2019-04-21T14:37:38.757Z,22.00
2019-04-21T14:40:14.083Z,21.50
2019-04-21T14:42:42.285Z,21.40
2019-04-21T14:45:22.908Z,21.70
2019-04-21T14:47:59.000Z,22.50
2019-04-21T14:50:46.467Z,23.40
2019-04-21T14:53:20.108Z,22.40
2019-04-21T14:55:51.103Z,22.30
2019-04-21T14:58:21.186Z,22.50
2019-04-21T15:00:57.890Z,22.80
2019-04-21T15:03:34.177Z,23.50
2019-04-21T15:06:03.705Z,23.20
2019-04-21T15:08:33.404Z,23.30
2019-04-21T15:11:03.109Z,23.20
2019-04-21T15:13:32.462Z,23.30
2019-04-21T15:16:02.744Z,22.60
2019-04-21T15:18:32.786Z,23.40
2019-04-21T15:21:03.637Z,23.60
2019-04-21T15:23:33.945Z,22.50
2019-04-21T15:26:04.151Z,22.20
2019-04-21T15:28:35.327Z,23.40
2019-04-21T15:31:04.917Z,23.10
2019-04-21T15:33:33.220Z,22.70
2019-04-21T15:36:02.930Z,21.90
2019-04-21T15:38:32.214Z,22.90
2019-04-21T15:41:04.478Z,23.20
2019-04-21T15:43:33.392Z,23.10
2019-04-21T15:46:02.810Z,23.30
2019-04-21T15:48:33.110Z,23.40
2019-04-21T15:51:05.614Z,23.40
2019-04-21T15:53:35.710Z,23.10
2019-04-21T15:56:20.668Z,23.80
2019-04-21T15:59:12.593Z,24.70
2019-04-21T16:02:04.362Z,24.60
2019-04-21T16:04:34.648Z,23.80
2019-04-21T16:07:03.921Z,23.80
2019-04-21T16:09:35.889Z,23.10
2019-04-21T16:12:04.303Z,21.90
2019-04-21T16:14:34.490Z,23.50
2019-04-21T16:17:05.259Z,24.00
2019-04-21T16:19:36.230Z,23.50
2019-04-21T16:22:06.415Z,23.30
2019-04-21T16:24:37.668Z,24.10
2019-04-21T16:27:10.365Z,23.10
2019-04-21T16:29:37.818Z,23.20
2019-04-21T16:32:07.016Z,23.70
2019-04-21T16:34:46.541Z,24.80
2019-04-21T16:37:07.753Z,24.10
2019-04-21T16:39:37.803Z,23.60
2019-04-21T16:42:08.475Z,24.60
2019-04-21T16:44:38.913Z,24.20
2019-04-21T16:47:09.605Z,23.20
2019-04-21T16:49:40.034Z,23.80
2019-04-21T16:52:32.456Z,23.80
2019-04-21T16:55:08.666Z,23.40
2019-04-21T16:57:58.409Z,24.00
2019-04-21T17:00:32.758Z,23.80
2019-04-21T17:02:54.585Z,23.10
2019-04-21T17:05:24.556Z,23.60
2019-04-21T17:07:53.918Z,22.80
2019-04-21T17:10:24.482Z,23.80
2019-04-21T17:12:55.929Z,23.90
2019-04-21T17:15:46.358Z,23.60
2019-04-21T17:18:15.061Z,24.50
2019-04-21T17:20:41.194Z,25.20
2019-04-21T17:23:01.678Z,24.20
2019-04-21T17:25:32.090Z,23.20
2019-04-21T17:28:01.663Z,24.40
2019-04-21T17:30:32.326Z,24.30
2019-04-21T17:33:01.563Z,24.80
2019-04-21T17:35:31.186Z,24.90
2019-04-21T17:38:01.622Z,24.80
2019-04-21T17:40:31.598Z,25.00
2019-04-21T17:43:05.512Z,24.90
2019-04-21T17:45:33.001Z,25.10
2019-04-21T17:48:08.087Z,25.30
2019-04-21T17:50:59.307Z,25.10
2019-04-21T17:53:40.217Z,24.60
2019-04-21T17:56:23.326Z,25.00
2019-04-21T17:58:56.739Z,25.10
2019-04-21T18:01:40.550Z,25.40
2019-04-21T18:04:10.804Z,25.30
2019-04-21T18:06:46.957Z,25.50
2019-04-21T18:09:31.505Z,25.90
2019-04-21T18:11:57.881Z,26.00
2019-04-21T18:14:09.427Z,26.20
2019-04-21T18:16:44.797Z,26.30
2019-04-21T18:19:12.902Z,26.10
2019-04-21T18:22:08.798Z,26.30
2019-04-21T18:24:50.179Z,26.60
2019-04-21T18:27:11.549Z,26.80
2019-04-21T18:29:42.092Z,26.60
2019-04-21T18:32:12.591Z,26.70
2019-04-21T18:35:03.818Z,27.00
2019-04-21T18:37:52.820Z,27.00
2019-04-21T18:40:27.998Z,27.40
2019-04-21T18:43:38.689Z,27.50
2019-04-21T18:46:09.379Z,27.50
2019-04-21T18:48:31.578Z,27.90
2019-04-21T18:51:04.799Z,28.30
2019-04-21T18:53:44.834Z,28.50
2019-04-21T18:56:06.508Z,28.50
2019-04-21T18:58:36.014Z,28.70
2019-04-21T19:01:12.761Z,28.90
2019-04-21T19:03:41.527Z,29.10
2019-04-21T19:06:12.866Z,29.30
2019-04-21T19:09:01.116Z,29.60
2019-04-21T19:11:40.784Z,29.70
2019-04-21T19:14:28.912Z,29.90
2019-04-21T19:19:36.682Z,30.10
2019-04-21T19:21:40.369Z,30.40
2019-04-21T19:26:57.460Z,30.70
2019-04-21T19:29:24.126Z,30.90
2019-04-21T19:31:49.259Z,31.10
2019-04-21T19:34:07.805Z,31.50
2019-04-21T19:36:32.670Z,31.40
2019-04-21T19:39:12.851Z,31.50
2019-04-21T19:41:52.118Z,31.60
2019-04-21T19:44:24.820Z,32.00
2019-04-21T19:46:57.150Z,32.10
2019-04-21T19:49:34.290Z,32.30
2019-04-21T19:51:52.367Z,32.70
2019-04-21T19:54:22.394Z,33.20
2019-04-21T19:56:49.337Z,33.30
2019-04-21T19:59:32.462Z,33.30
2019-04-21T20:01:56.195Z,33.40
2019-04-21T20:04:38.549Z,33.60
2019-04-21T20:07:22.146Z,33.70
2019-04-21T20:09:50.461Z,34.00
2019-04-21T20:12:32.935Z,34.10
2019-04-21T20:15:10.871Z,34.30
2019-04-21T20:17:39.150Z,34.50
2019-04-21T20:19:52.059Z,34.50
2019-04-21T20:22:23.946Z,34.80
2019-04-21T20:25:01.433Z,35.10
2019-04-21T20:27:37.482Z,35.10
2019-04-21T20:30:07.267Z,35.50
2019-04-21T20:32:45.368Z,35.60
2019-04-21T20:35:14.384Z,35.90
2019-04-21T20:37:47.868Z,36.10
2019-04-21T20:40:10.220Z,36.30
2019-04-21T20:42:42.809Z,36.40
2019-04-21T20:47:41.325Z,36.50
2019-04-21T20:50:19.781Z,36.50
2019-04-21T20:52:59.043Z,36.60
2019-04-21T20:55:21.481Z,36.90
2019-04-21T20:57:58.251Z,37.10
2019-04-21T21:00:39.104Z,37.30
2019-04-21T21:03:12.176Z,37.30
2019-04-21T21:05:37.638Z,37.30
2019-04-21T21:08:18.031Z,37.40
2019-04-21T21:10:38.598Z,37.50
2019-04-21T21:13:20.630Z,37.70
2019-04-21T21:15:51.325Z,37.60
2019-04-21T21:18:27.119Z,37.60
2019-04-21T21:20:49.848Z,37.70
2019-04-21T21:23:16.235Z,37.70
2019-04-21T21:25:50.487Z,37.90
2019-04-21T21:28:24.201Z,37.80
2019-04-21T21:30:52.936Z,37.70
2019-04-21T21:33:47.210Z,37.60
2019-04-21T21:35:50.347Z,37.70
2019-04-21T21:38:28.204Z,37.70
2019-04-21T21:40:53.002Z,37.90
2019-04-21T21:43:17.043Z,38.10
2019-04-21T21:45:50.018Z,38.00
2019-04-21T21:48:31.790Z,38.10
2019-04-21T21:50:57.652Z,38.10
2019-04-21T21:53:22.474Z,38.20
2019-04-21T21:55:48.778Z,38.20
2019-04-21T21:58:25.063Z,38.30
2019-04-21T22:00:58.582Z,38.30
2019-04-21T22:03:30.855Z,38.20
2019-04-21T22:06:01.926Z,38.30
2019-04-21T22:08:28.272Z,38.20
2019-04-21T22:11:01.348Z,38.20
2019-04-21T22:13:39.952Z,38.30
2019-04-21T22:16:06.811Z,38.30
2019-04-21T22:18:58.242Z,38.10
2019-04-21T22:21:13.442Z,38.20
2019-04-21T22:23:52.755Z,38.10
2019-04-21T22:26:09.693Z,38.20
2019-04-21T22:28:40.870Z,38.20
2019-04-21T22:31:18.417Z,38.30
2019-04-21T22:33:48.396Z,38.20
2019-04-21T22:36:31.279Z,38.40
2019-04-21T22:39:11.820Z,38.40
2019-04-21T22:41:30.241Z,38.60
2019-04-21T22:43:55.891Z,38.60
2019-04-21T22:46:26.432Z,38.70
2019-04-21T22:48:59.515Z,38.70
2019-04-21T22:51:35.450Z,38.70
2019-04-21T22:53:59.443Z,38.90
2019-04-21T22:56:32.003Z,38.80
2019-04-21T22:58:59.061Z,38.90
2019-04-21T23:01:35.027Z,38.90
2019-04-21T23:04:02.804Z,39.00
2019-04-21T23:06:33.745Z,39.00
2019-04-21T23:09:01.305Z,39.10
2019-04-21T23:11:37.436Z,39.10
2019-04-21T23:14:05.008Z,39.20
2019-04-21T23:16:36.329Z,39.30
2019-04-21T23:19:24.016Z,39.20
2019-04-21T23:21:59.631Z,39.30
2019-04-21T23:24:34.679Z,39.40
2019-04-21T23:26:53.719Z,39.40
2019-04-21T23:29:46.584Z,39.50
2019-04-21T23:31:59.342Z,39.60
2019-04-21T23:34:20.826Z,39.70
2019-04-21T23:36:57.398Z,39.80
2019-04-21T23:39:23.344Z,40.00
2019-04-21T23:41:53.385Z,40.00
2019-04-21T23:44:22.227Z,40.10
2019-04-21T23:46:57.629Z,40.30
2019-04-21T23:49:35.398Z,40.40
2019-04-21T23:52:00.811Z,40.50
2019-04-21T23:54:27.270Z,40.80
2019-04-21T23:56:57.965Z,40.90
2019-04-21T23:59:31.206Z,41.00
